Time;durP1;ratioP1;P1;durP2;ratioP2;P2;SDS_P1;SDS_P2;PMS_P1;PMS_P2;Temp;Humidity;BMP_temperature;BMP_pressure;BME280_temperature;BME280_humidity;BME280_pressure;Samples;Min_cycle;Max_cycle;Signal;HPM_P1;HPM_P2
2021/09/24 00:02:17;;;;;;;;;4.00;4.00;;;;;;;;5024987;28;9594;-80
2021/09/24 00:04:44;;;;;;;;;7.00;7.00;;;;;;;;5012037;28;9546;-87
2021/09/24 00:07:11;;;;;;;;;5.50;5.25;;;;;;;;5024465;28;9619;-88
2021/09/24 00:09:39;;;;;;;;;6.50;4.25;;;;;;;;5022961;28;10906;-83
2021/09/24 00:12:07;;;;;;;;;5.25;5.25;;;;;;;;5024122;28;9636;-85
2021/09/24 00:14:34;;;;;;;;;8.00;7.25;;;;;;;;5025757;28;9652;-85
2021/09/24 00:17:03;;;;;;;;;4.50;4.50;;;;;;;;5006406;28;9907;-76
2021/09/24 00:19:31;;;;;;;;;7.00;7.00;;;;;;;;5025426;28;10402;-79
2021/09/24 00:21:58;;;;;;;;;5.25;5.25;;;;;;;;5018802;28;9783;-77
2021/09/24 00:24:25;;;;;;;;;5.50;5.50;;;;;;;;5024880;28;9806;-88
2021/09/24 00:26:52;;;;;;;;;9.00;9.00;;;;;;;;5025357;28;9715;-88
2021/09/24 00:29:20;;;;;;;;;9.25;8.50;;;;;;;;5023824;28;9761;-90
2021/09/24 00:31:47;;;;;;;;;6.50;6.50;;;;;;;;5022291;28;9784;-91
2021/09/24 00:34:16;;;;;;;;;10.75;10.75;;;;;;;;5025083;28;9732;-92
2021/09/24 00:36:43;;;;;;;;;12.25;11.25;;;;;;;;5025876;28;9774;-93
2021/09/24 00:39:10;;;;;;;;;9.25;8.75;;;;;;;;5023751;28;9858;-88
2021/09/24 00:41:37;;;;;;;;;14.50;10.00;;;;;;;;5024844;28;9880;-86
2021/09/24 00:44:06;;;;;;;;;11.00;9.00;;;;;;;;5023533;28;9775;-86
2021/09/24 00:46:33;;;;;;;;;7.25;7.25;;;;;;;;5024005;28;9689;-86
2021/09/24 00:49:00;;;;;;;;;14.25;11.75;;;;;;;;5025515;28;9615;-85
2021/09/24 00:51:29;;;;;;;;;10.50;8.75;;;;;;;;5021169;28;9614;-83
2021/09/24 00:53:56;;;;;;;;;9.00;9.00;;;;;;;;5013712;28;9563;-85
2021/09/24 00:56:26;;;;;;;;;10.67;10.67;;;;;;;;5024153;28;9951;-85
2021/09/24 00:58:53;;;;;;;;;11.67;10.00;;;;;;;;5025059;28;9486;-86
2021/09/24 01:01:20;;;;;;;;;9.33;9.33;;;;;;;;5024041;28;9342;-86
2021/09/24 01:03:48;;;;;;;;;9.00;9.00;;;;;;;;5024809;28;9335;-81
2021/09/24 01:06:15;;;;;;;;;9.33;9.33;;;;;;;;5015937;28;9470;-83
2021/09/24 01:08:45;;;;;;;;;9.00;9.00;;;;;;;;5018707;28;10157;-82
2021/09/24 01:11:12;;;;;;;;;12.00;9.67;;;;;;;;5019551;28;9406;-83
2021/09/24 01:13:39;;;;;;;;;10.67;9.67;;;;;;;;5016315;28;9815;-89
2021/09/24 01:16:06;;;;;;;;;9.00;9.00;;;;;;;;5024919;28;8920;-86
2021/09/24 01:18:34;;;;;;;;;9.00;9.00;;;;;;;;5024490;28;8920;-87
2021/09/24 01:21:02;;;;;;;;;12.00;10.00;;;;;;;;5022780;28;8966;-80
2021/09/24 01:23:31;;;;;;;;;13.00;10.00;;;;;;;;5021055;28;8957;-87
2021/09/24 01:25:58;;;;;;;;;14.00;11.00;;;;;;;;5022380;28;9685;-86
2021/09/24 01:28:25;;;;;;;;;13.25;11.25;;;;;;;;5024830;28;8968;-79
2021/09/24 01:30:53;;;;;;;;;10.50;9.25;;;;;;;;5016663;28;8909;-89
2021/09/24 01:33:20;;;;;;;;;9.75;9.00;;;;;;;;5024495;28;8862;-87
2021/09/24 01:35:47;;;;;;;;;11.25;11.25;;;;;;;;5022188;28;8869;-88
2021/09/24 01:38:15;;;;;;;;;8.00;8.00;;;;;;;;5019709;28;8882;-86
2021/09/24 01:40:44;;;;;;;;;12.50;12.50;;;;;;;;5024449;28;8872;-87
2021/09/24 01:43:11;;;;;;;;;10.00;10.00;;;;;;;;5023931;28;8981;-84
2021/09/24 01:45:38;;;;;;;;;9.25;9.25;;;;;;;;5024010;28;8858;-82
2021/09/24 01:48:06;;;;;;;;;12.75;11.00;;;;;;;;5021872;28;9009;-86
2021/09/24 01:50:33;;;;;;;;;11.50;9.75;;;;;;;;5006356;28;8908;-87
2021/09/24 01:53:01;;;;;;;;;14.00;12.00;;;;;;;;5027836;28;8831;-83
2021/09/24 01:55:28;;;;;;;;;12.00;12.00;;;;;;;;5025604;28;8850;-76
2021/09/24 01:57:57;;;;;;;;;11.50;9.50;;;;;;;;5021572;28;8857;-85
2021/09/24 02:00:24;;;;;;;;;14.50;14.25;;;;;;;;5023385;28;8808;-89
2021/09/24 02:02:51;;;;;;;;;14.25;12.75;;;;;;;;5029104;28;8865;-90
2021/09/24 02:05:19;;;;;;;;;11.00;9.50;;;;;;;;5006847;28;8927;-88
2021/09/24 02:07:46;;;;;;;;;11.00;11.00;;;;;;;;5024624;28;9000;-78
2021/09/24 02:10:13;;;;;;;;;16.50;13.75;;;;;;;;5025120;28;8854;-87
2021/09/24 02:12:41;;;;;;;;;13.00;9.75;;;;;;;;5024396;28;8857;-86
2021/09/24 02:15:12;;;;;;;;;11.00;9.75;;;;;;;;5027025;28;8862;-87
2021/09/24 02:17:39;;;;;;;;;9.75;9.75;;;;;;;;5027299;28;8894;-84
2021/09/24 02:20:08;;;;;;;;;12.75;12.00;;;;;;;;5025023;28;8905;-81
2021/09/24 02:22:35;;;;;;;;;11.50;9.00;;;;;;;;5024654;28;9024;-84
2021/09/24 02:25:03;;;;;;;;;11.75;10.25;;;;;;;;5028774;28;8928;-85
2021/09/24 02:27:30;;;;;;;;;8.25;6.75;;;;;;;;5025693;28;8862;-86
2021/09/24 02:29:58;;;;;;;;;10.75;10.75;;;;;;;;5020496;28;8856;-84
2021/09/24 02:32:26;;;;;;;;;7.00;7.00;;;;;;;;5023759;28;8791;-77
2021/09/24 02:34:53;;;;;;;;;9.25;9.25;;;;;;;;5026034;28;9004;-78
2021/09/24 02:37:21;;;;;;;;;9.50;9.50;;;;;;;;5026747;28;8854;-78
2021/09/24 02:39:48;;;;;;;;;6.75;5.25;;;;;;;;5022387;28;8876;-79
2021/09/24 02:42:16;;;;;;;;;9.75;6.75;;;;;;;;5022439;28;8880;-80
2021/09/24 02:44:43;;;;;;;;;8.50;8.50;;;;;;;;5024384;28;9600;-79
2021/09/24 02:47:10;;;;;;;;;7.75;7.75;;;;;;;;5025502;28;8885;-83
2021/09/24 02:49:41;;;;;;;;;6.00;6.00;;;;;;;;5025432;28;8882;-75
2021/09/24 02:52:09;;;;;;;;;6.75;6.75;;;;;;;;5025918;28;8889;-75
2021/09/24 02:54:36;;;;;;;;;10.00;7.00;;;;;;;;5019655;28;8862;-77
2021/09/24 02:57:04;;;;;;;;;5.75;5.75;;;;;;;;5025071;28;8904;-77
2021/09/24 02:59:31;;;;;;;;;4.75;4.75;;;;;;;;5004651;28;9673;-78
2021/09/24 03:01:58;;;;;;;;;6.00;6.00;;;;;;;;5023195;28;8877;-76
2021/09/24 03:04:26;;;;;;;;;7.00;5.75;;;;;;;;5026929;28;8888;-76
2021/09/24 03:06:55;;;;;;;;;5.25;5.25;;;;;;;;5025000;28;8880;-76
2021/09/24 03:09:22;;;;;;;;;11.00;6.50;;;;;;;;5025381;28;8862;-75
2021/09/24 03:11:49;;;;;;;;;8.50;7.00;;;;;;;;5024671;28;8841;-74
2021/09/24 03:14:16;;;;;;;;;6.50;6.50;;;;;;;;5022609;28;8842;-77
2021/09/24 03:16:44;;;;;;;;;5.25;5.25;;;;;;;;5025337;28;8874;-75
2021/09/24 03:19:14;;;;;;;;;6.50;6.50;;;;;;;;5020116;28;8843;-75
2021/09/24 03:21:41;;;;;;;;;8.25;7.50;;;;;;;;5025795;28;8916;-77
2021/09/24 03:24:10;;;;;;;;;5.50;5.00;;;;;;;;5023877;28;8877;-75
2021/09/24 03:26:37;;;;;;;;;7.00;7.00;;;;;;;;5013169;28;8862;-76
2021/09/24 03:29:05;;;;;;;;;4.25;4.25;;;;;;;;5018879;28;8959;-74
2021/09/24 03:31:32;;;;;;;;;5.00;5.00;;;;;;;;5024481;28;8818;-78
2021/09/24 03:33:59;;;;;;;;;5.00;5.00;;;;;;;;5025686;28;8842;-78
2021/09/24 03:36:26;;;;;;;;;4.75;4.75;;;;;;;;5019471;28;9006;-80
2021/09/24 03:38:54;;;;;;;;;5.00;5.00;;;;;;;;5021494;28;8887;-88
2021/09/24 03:41:23;;;;;;;;;7.50;5.00;;;;;;;;5016158;28;8882;-77
2021/09/24 03:43:50;;;;;;;;;6.75;6.00;;;;;;;;5006773;28;8896;-74
2021/09/24 03:46:18;;;;;;;;;4.00;4.00;;;;;;;;5023975;28;8851;-75
2021/09/24 03:48:45;;;;;;;;;7.75;7.75;;;;;;;;5006792;28;8993;-75
2021/09/24 03:51:12;;;;;;;;;7.00;5.50;;;;;;;;5023975;28;8900;-75
2021/09/24 03:53:40;;;;;;;;;6.00;5.75;;;;;;;;5023806;28;8866;-75
2021/09/24 03:56:07;;;;;;;;;5.50;4.25;;;;;;;;5024200;28;8862;-81
2021/09/24 03:58:35;;;;;;;;;5.00;4.00;;;;;;;;5024126;28;9644;-74
2021/09/24 04:01:03;;;;;;;;;7.75;7.75;;;;;;;;5023486;28;8821;-76
2021/09/24 04:03:30;;;;;;;;;6.50;6.50;;;;;;;;5023521;28;8927;-80
2021/09/24 04:05:57;;;;;;;;;4.00;4.00;;;;;;;;5012661;28;8985;-78
2021/09/24 04:08:25;;;;;;;;;8.00;5.25;;;;;;;;5012074;28;9672;-79
2021/09/24 04:10:53;;;;;;;;;7.25;7.25;;;;;;;;5012190;28;8866;-84
2021/09/24 04:13:21;;;;;;;;;6.25;6.25;;;;;;;;5024236;28;8862;-76
2021/09/24 04:15:50;;;;;;;;;4.75;4.75;;;;;;;;5020762;28;8923;-80
2021/09/24 04:18:17;;;;;;;;;5.50;5.50;;;;;;;;5017990;28;8916;-80
2021/09/24 04:20:46;;;;;;;;;2.00;2.00;;;;;;;;5022671;28;9606;-77
2021/09/24 04:23:14;;;;;;;;;6.00;6.00;;;;;;;;4999706;28;8834;-78
2021/09/24 04:25:41;;;;;;;;;4.00;4.00;;;;;;;;5021902;28;8886;-79
2021/09/24 04:28:09;;;;;;;;;5.25;5.25;;;;;;;;5024207;28;9684;-76
2021/09/24 04:30:36;;;;;;;;;6.00;4.75;;;;;;;;5023814;28;8786;-82
2021/09/24 04:33:05;;;;;;;;;6.75;6.00;;;;;;;;5005872;28;8858;-77
2021/09/24 04:35:32;;;;;;;;;5.25;5.25;;;;;;;;5021069;28;8896;-76
2021/09/24 04:38:00;;;;;;;;;4.00;4.00;;;;;;;;5019751;28;8878;-75
2021/09/24 04:40:27;;;;;;;;;5.75;5.75;;;;;;;;5025034;28;8971;-75
2021/09/24 04:42:54;;;;;;;;;5.25;5.00;;;;;;;;5024257;28;8850;-74
2021/09/24 04:45:21;;;;;;;;;5.75;5.75;;;;;;;;5023653;28;8883;-76
2021/09/24 04:47:48;;;;;;;;;5.50;4.25;;;;;;;;5023751;28;8850;-76
2021/09/24 04:50:17;;;;;;;;;7.00;5.25;;;;;;;;5021837;28;8854;-81
2021/09/24 04:52:45;;;;;;;;;7.25;7.25;;;;;;;;5023786;28;9741;-77
2021/09/24 04:55:12;;;;;;;;;6.00;4.50;;;;;;;;5011504;28;8864;-78
2021/09/24 04:57:40;;;;;;;;;6.75;6.75;;;;;;;;5022265;28;8911;-76
2021/09/24 05:00:11;;;;;;;;;8.00;8.00;;;;;;;;5022346;28;8884;-76
2021/09/24 05:02:38;;;;;;;;;11.00;9.50;;;;;;;;5015525;28;8878;-76
2021/09/24 05:05:07;;;;;;;;;10.25;10.25;;;;;;;;5022810;28;9643;-79
2021/09/24 05:07:35;;;;;;;;;13.25;12.50;;;;;;;;5012653;28;8839;-76
2021/09/24 05:10:03;;;;;;;;;15.50;12.50;;;;;;;;5011714;28;8864;-76
2021/09/24 05:12:30;;;;;;;;;10.75;10.75;;;;;;;;5019581;28;8881;-76
2021/09/24 05:14:57;;;;;;;;;12.00;11.75;;;;;;;;5024083;28;8854;-81
2021/09/24 05:17:25;;;;;;;;;12.00;12.00;;;;;;;;5009593;28;8872;-76
2021/09/24 05:19:52;;;;;;;;;18.75;13.75;;;;;;;;5017639;28;8866;-75
2021/09/24 05:22:19;;;;;;;;;12.75;11.00;;;;;;;;5015145;28;8854;-74
2021/09/24 05:24:48;;;;;;;;;15.50;13.25;;;;;;;;5024909;28;8881;-79
2021/09/24 05:27:16;;;;;;;;;16.00;16.00;;;;;;;;5037224;28;8990;-77
2021/09/24 05:29:43;;;;;;;;;16.75;15.75;;;;;;;;5020891;28;8878;-75
2021/09/24 05:32:13;;;;;;;;;18.00;18.00;;;;;;;;5023243;28;8818;-78
2021/09/24 05:34:41;;;;;;;;;16.25;16.25;;;;;;;;5023319;28;8868;-76
2021/09/24 05:37:09;;;;;;;;;15.75;14.50;;;;;;;;5027336;28;8893;-77
2021/09/24 05:39:37;;;;;;;;;15.00;15.00;;;;;;;;5017630;28;9641;-77
2021/09/24 05:42:06;;;;;;;;;12.00;12.00;;;;;;;;5033803;28;8872;-76
2021/09/24 05:44:33;;;;;;;;;16.75;16.75;;;;;;;;5038769;28;9580;-76
2021/09/24 05:47:02;;;;;;;;;12.00;12.00;;;;;;;;5031126;28;8874;-78
2021/09/24 05:49:30;;;;;;;;;14.75;14.00;;;;;;;;5038169;28;8975;-78
2021/09/24 05:51:58;;;;;;;;;15.50;13.50;;;;;;;;5024678;28;8944;-78
2021/09/24 05:54:25;;;;;;;;;15.25;14.50;;;;;;;;5030986;28;9621;-78
2021/09/24 05:56:53;;;;;;;;;11.50;11.50;;;;;;;;5015296;28;8838;-73
2021/09/24 05:59:21;;;;;;;;;15.25;14.50;;;;;;;;5031088;28;8844;-73
2021/09/24 06:01:49;;;;;;;;;14.00;13.00;;;;;;;;5030035;28;8789;-72
2021/09/24 06:04:16;;;;;;;;;20.75;15.50;;;;;;;;5028517;28;8854;-72
2021/09/24 06:06:43;;;;;;;;;14.00;12.25;;;;;;;;5035329;28;8863;-73
2021/09/24 06:09:10;;;;;;;;;15.50;14.00;;;;;;;;5014893;28;8881;-72
2021/09/24 06:11:38;;;;;;;;;13.00;10.75;;;;;;;;5032395;28;8862;-73
2021/09/24 06:14:06;;;;;;;;;10.75;10.75;;;;;;;;5026302;28;8894;-72
2021/09/24 06:16:35;;;;;;;;;16.50;14.25;;;;;;;;5013932;28;9057;-72
2021/09/24 06:19:02;;;;;;;;;16.00;16.00;;;;;;;;5026580;28;8905;-72
2021/09/24 06:21:29;;;;;;;;;10.50;9.75;;;;;;;;5024883;28;9588;-72
2021/09/24 06:23:57;;;;;;;;;10.75;10.75;;;;;;;;5027462;28;8857;-73
2021/09/24 06:26:24;;;;;;;;;12.00;12.00;;;;;;;;5030911;28;8868;-72
2021/09/24 06:28:52;;;;;;;;;11.50;10.75;;;;;;;;5034747;28;8858;-72
2021/09/24 06:31:19;;;;;;;;;15.50;14.00;;;;;;;;5024437;28;8965;-73
2021/09/24 06:33:49;;;;;;;;;10.75;9.75;;;;;;;;5026212;28;9000;-73
2021/09/24 06:36:18;;;;;;;;;13.25;12.75;;;;;;;;5026952;28;8838;-74
2021/09/24 06:38:46;;;;;;;;;10.00;10.00;;;;;;;;5015620;28;8953;-74
2021/09/24 06:41:14;;;;;;;;;9.00;9.00;;;;;;;;5020688;28;9018;-74
2021/09/24 06:43:42;;;;;;;;;12.75;12.00;;;;;;;;5019609;28;8858;-74
2021/09/24 06:46:10;;;;;;;;;12.25;12.25;;;;;;;;5024574;28;8854;-74
2021/09/24 06:48:37;;;;;;;;;9.00;7.25;;;;;;;;5021048;28;8865;-73
2021/09/24 06:51:06;;;;;;;;;10.25;9.75;;;;;;;;5021418;28;8916;-73
2021/09/24 06:53:33;;;;;;;;;10.25;8.25;;;;;;;;5025089;28;8866;-74
2021/09/24 06:56:00;;;;;;;;;13.00;11.50;;;;;;;;5020837;28;8852;-74
2021/09/24 06:58:28;;;;;;;;;11.75;10.50;;;;;;;;5015958;28;8876;-74
2021/09/24 07:00:55;;;;;;;;;7.25;7.25;;;;;;;;5018018;28;8811;-74
2021/09/24 07:03:22;;;;;;;;;11.75;11.75;;;;;;;;5018300;28;8856;-75
2021/09/24 07:05:50;;;;;;;;;4.25;4.25;;;;;;;;5012542;28;8881;-73
2021/09/24 07:08:18;;;;;;;;;6.00;6.00;;;;;;;;5017571;28;8880;-74
2021/09/24 07:10:46;;;;;;;;;11.25;11.25;;;;;;;;5015044;28;8924;-73
2021/09/24 07:13:13;;;;;;;;;12.75;12.50;;;;;;;;5025932;28;8892;-73
2021/09/24 07:15:43;;;;;;;;;13.50;11.50;;;;;;;;5025644;28;8850;-74
2021/09/24 07:18:11;;;;;;;;;11.50;11.50;;;;;;;;5019882;28;9634;-74
2021/09/24 07:20:39;;;;;;;;;10.75;10.00;;;;;;;;5013526;28;9051;-73
2021/09/24 07:23:06;;;;;;;;;7.25;7.25;;;;;;;;5025129;28;8876;-74
2021/09/24 07:25:35;;;;;;;;;8.50;8.50;;;;;;;;5025567;28;8849;-73
2021/09/24 07:28:02;;;;;;;;;10.50;10.50;;;;;;;;5024869;28;9407;-73
2021/09/24 07:30:29;;;;;;;;;11.75;9.00;;;;;;;;5023811;28;8833;-73
2021/09/24 07:32:57;;;;;;;;;9.50;9.00;;;;;;;;5025054;28;8923;-74
2021/09/24 07:35:24;;;;;;;;;9.25;9.25;;;;;;;;5024482;28;8854;-74
2021/09/24 07:37:51;;;;;;;;;7.00;7.00;;;;;;;;5020946;28;8842;-73
2021/09/24 07:40:19;;;;;;;;;7.00;7.00;;;;;;;;5024573;28;8886;-72
2021/09/24 07:42:47;;;;;;;;;11.25;9.00;;;;;;;;5025648;28;8842;-73
2021/09/24 07:45:15;;;;;;;;;11.50;10.00;;;;;;;;5025221;28;8864;-71
2021/09/24 07:47:42;;;;;;;;;6.25;6.25;;;;;;;;5024902;28;8881;-72
2021/09/24 07:50:10;;;;;;;;;9.50;9.50;;;;;;;;5025136;28;8862;-71
2021/09/24 07:52:38;;;;;;;;;7.00;7.00;;;;;;;;5021712;28;8979;-72
2021/09/24 07:55:06;;;;;;;;;6.25;6.25;;;;;;;;5022660;28;8867;-72
2021/09/24 07:57:34;;;;;;;;;6.50;6.00;;;;;;;;5025018;28;8870;-73
2021/09/24 08:00:04;;;;;;;;;6.75;5.25;;;;;;;;5007403;28;8858;-73
2021/09/24 08:02:31;;;;;;;;;7.50;7.25;;;;;;;;5023223;28;8838;-72
2021/09/24 08:04:58;;;;;;;;;7.00;7.00;;;;;;;;5025601;28;8969;-72
2021/09/24 08:07:26;;;;;;;;;13.50;13.50;;;;;;;;5025601;28;8854;-72
2021/09/24 08:09:53;;;;;;;;;23.00;23.00;;;;;;;;5024771;28;8874;-72
2021/09/24 08:12:20;;;;;;;;;7.50;7.50;;;;;;;;5007925;28;8884;-73
2021/09/24 08:14:48;;;;;;;;;9.75;7.25;;;;;;;;5023991;28;8873;-73
2021/09/24 08:17:16;;;;;;;;;7.00;6.00;;;;;;;;5024922;28;8882;-72
2021/09/24 08:19:44;;;;;;;;;7.25;7.25;;;;;;;;5024468;28;8877;-72
2021/09/24 08:22:11;;;;;;;;;10.50;6.00;;;;;;;;5025141;28;9783;-73
2021/09/24 08:24:38;;;;;;;;;6.50;4.75;;;;;;;;5025276;28;8846;-72
2021/09/24 08:27:06;;;;;;;;;8.00;8.00;;;;;;;;5011230;28;8858;-73
2021/09/24 08:29:33;;;;;;;;;5.75;5.75;;;;;;;;5025348;28;8865;-72
2021/09/24 08:32:01;;;;;;;;;5.00;5.00;;;;;;;;5023874;28;8803;-73
2021/09/24 08:34:30;;;;;;;;;5.00;5.00;;;;;;;;5026171;28;8976;-74
2021/09/24 08:36:57;;;;;;;;;6.25;6.25;;;;;;;;5022219;28;8858;-72
2021/09/24 08:39:25;;;;;;;;;6.75;6.50;;;;;;;;5022507;28;8862;-72
2021/09/24 08:41:52;;;;;;;;;6.00;6.00;;;;;;;;5024810;28;8880;-73
2021/09/24 08:44:25;;;;;;;;;7.50;5.25;;;;;;;;5024555;28;8881;-72
2021/09/24 08:46:52;;;;;;;;;8.25;6.50;;;;;;;;5024920;28;8830;-72
2021/09/24 08:49:21;;;;;;;;;8.00;5.00;;;;;;;;5023698;28;8866;-73
2021/09/24 08:51:50;;;;;;;;;5.00;5.00;;;;;;;;5024662;28;8877;-72
2021/09/24 08:54:17;;;;;;;;;6.50;5.00;;;;;;;;5023586;28;8846;-73
2021/09/24 08:56:45;;;;;;;;;5.00;5.00;;;;;;;;5016894;28;8898;-73
2021/09/24 08:59:12;;;;;;;;;6.50;4.75;;;;;;;;5023109;28;9632;-73
2021/09/24 09:01:57;;;;;;;;;5.50;5.50;;;;;;;;5023311;28;9619;-73
2021/09/24 09:04:34;;;;;;;;;8.00;8.00;;;;;;;;5025187;28;8885;-73
2021/09/24 09:07:06;;;;;;;;;6.50;6.50;;;;;;;;5023614;28;8854;-73
2021/09/24 09:09:34;;;;;;;;;7.25;7.25;;;;;;;;5024975;28;8873;-73
2021/09/24 09:12:11;;;;;;;;;6.00;6.00;;;;;;;;5023833;28;8854;-72
2021/09/24 09:14:39;;;;;;;;;4.25;4.25;;;;;;;;5015887;28;8881;-73
2021/09/24 09:17:30;;;;;;;;;1.75;1.25;;;;;;;;5023990;28;8890;-73
2021/09/24 09:20:17;;;;;;;;;5.50;5.00;;;;;;;;5023489;28;9008;-72
2021/09/24 09:22:47;;;;;;;;;6.25;5.25;;;;;;;;5024718;28;9553;-73
2021/09/24 09:25:24;;;;;;;;;7.25;5.00;;;;;;;;5023903;28;8866;-72
2021/09/24 09:27:52;;;;;;;;;6.50;5.00;;;;;;;;5005783;28;8885;-73
2021/09/24 09:30:20;;;;;;;;;5.00;5.00;;;;;;;;5023780;28;8850;-73
2021/09/24 09:33:00;;;;;;;;;5.00;5.00;;;;;;;;5023218;28;9028;-73
2021/09/24 09:35:28;;;;;;;;;6.25;6.25;;;;;;;;5024664;28;8878;-72
2021/09/24 09:37:57;;;;;;;;;3.50;3.50;;;;;;;;5018619;28;8851;-72
2021/09/24 09:40:25;;;;;;;;;6.25;6.25;;;;;;;;5023998;28;8869;-73
2021/09/24 09:42:57;;;;;;;;;6.00;6.00;;;;;;;;5023907;28;8842;-73
2021/09/24 09:45:27;;;;;;;;;7.25;5.50;;;;;;;;5023237;28;8870;-73
2021/09/24 09:47:54;;;;;;;;;4.00;4.00;;;;;;;;5024049;28;8869;-73
2021/09/24 09:50:24;;;;;;;;;5.75;5.75;;;;;;;;5019622;28;8874;-73
2021/09/24 09:53:01;;;;;;;;;4.00;4.00;;;;;;;;5022512;28;8886;-73
2021/09/24 09:55:30;;;;;;;;;8.25;7.25;;;;;;;;5023372;28;8838;-72
2021/09/24 09:58:00;;;;;;;;;4.80;4.80;;;;;;;;5006383;28;8868;-73
2021/09/24 10:00:29;;;;;;;;;5.75;5.75;;;;;;;;5023412;28;8814;-73
2021/09/24 10:03:05;;;;;;;;;5.25;5.25;;;;;;;;5023506;28;8911;-73
2021/09/24 10:05:33;;;;;;;;;5.00;5.00;;;;;;;;5024267;28;8866;-73
2021/09/24 10:08:19;;;;;;;;;6.40;6.40;;;;;;;;5005083;28;8913;-72
2021/09/24 10:11:00;;;;;;;;;5.40;5.40;;;;;;;;5023614;28;8873;-73
2021/09/24 10:13:29;;;;;;;;;5.00;5.00;;;;;;;;5027458;28;8877;-73
2021/09/24 10:15:57;;;;;;;;;3.40;3.40;;;;;;;;5017309;28;8861;-73
2021/09/24 10:18:24;;;;;;;;;6.80;6.80;;;;;;;;5028199;28;8872;-73
2021/09/24 10:20:51;;;;;;;;;8.00;7.00;;;;;;;;5026562;28;8913;-73
2021/09/24 10:23:20;;;;;;;;;7.40;7.00;;;;;;;;5027470;28;8916;-73
2021/09/24 10:25:51;;;;;;;;;9.50;9.25;;;;;;;;5026972;28;8878;-73
2021/09/24 10:28:19;;;;;;;;;6.00;6.00;;;;;;;;5027145;28;8886;-73
2021/09/24 10:30:47;;;;;;;;;9.00;7.75;;;;;;;;5026338;28;8874;-73
2021/09/24 10:33:16;;;;;;;;;4.50;4.50;;;;;;;;5026837;28;8874;-73
2021/09/24 10:35:48;;;;;;;;;5.20;5.20;;;;;;;;5028023;28;8882;-73
2021/09/24 10:38:16;;;;;;;;;3.00;3.00;;;;;;;;5021689;28;8888;-73
2021/09/24 10:41:02;;;;;;;;;7.50;6.75;;;;;;;;5027938;28;8866;-73
2021/09/24 10:43:42;;;;;;;;;6.00;6.00;;;;;;;;5016657;28;8886;-72
2021/09/24 10:46:31;;;;;;;;;6.00;6.00;;;;;;;;5026487;28;8898;-72
2021/09/24 10:49:33;;;;;;;;;5.60;5.60;;;;;;;;5012889;28;8884;-73
2021/09/24 10:52:09;;;;;;;;;7.00;5.75;;;;;;;;5006869;28;8870;-71
2021/09/24 10:54:53;;;;;;;;;7.60;7.00;;;;;;;;5024526;28;8842;-72
2021/09/24 10:57:22;;;;;;;;;6.00;6.00;;;;;;;;5027026;28;8888;-72
2021/09/24 10:59:49;;;;;;;;;5.00;5.00;;;;;;;;5026153;28;8862;-72
2021/09/24 11:02:43;;;;;;;;;6.20;6.20;;;;;;;;5026215;28;8814;-72
2021/09/24 11:05:10;;;;;;;;;7.60;6.00;;;;;;;;5014232;28;8866;-72
2021/09/24 11:07:38;;;;;;;;;6.40;6.00;;;;;;;;5025657;28;8862;-73
2021/09/24 11:10:06;;;;;;;;;6.60;6.60;;;;;;;;5026922;28;8884;-72
2021/09/24 11:12:35;;;;;;;;;4.80;3.80;;;;;;;;5025692;28;9670;-72
2021/09/24 11:15:11;;;;;;;;;6.40;6.40;;;;;;;;5023599;28;8908;-73
2021/09/24 11:17:46;;;;;;;;;9.40;9.40;;;;;;;;5025657;28;8878;-73
2021/09/24 11:20:35;;;;;;;;;5.20;5.20;;;;;;;;5026463;28;8866;-73
2021/09/24 11:23:36;;;;;;;;;7.00;6.00;;;;;;;;5026278;28;8870;-73
2021/09/24 11:26:15;;;;;;;;;5.60;5.60;;;;;;;;5022205;28;8874;-74
2021/09/24 11:28:44;;;;;;;;;5.40;5.40;;;;;;;;5026800;28;8870;-74
2021/09/24 11:31:11;;;;;;;;;6.40;6.40;;;;;;;;5024919;28;8782;-73
2021/09/24 11:33:44;;;;;;;;;5.60;5.60;;;;;;;;5026325;28;8908;-73
2021/09/24 11:36:15;;;;;;;;;7.40;7.40;;;;;;;;5021561;28;8896;-74
2021/09/24 11:38:43;;;;;;;;;7.20;6.60;;;;;;;;5021365;28;8862;-74
2021/09/24 11:41:14;;;;;;;;;6.80;6.80;;;;;;;;5026938;28;8882;-75
2021/09/24 11:43:41;;;;;;;;;8.40;7.40;;;;;;;;5021139;28;8858;-74
2021/09/24 11:46:14;;;;;;;;;4.80;4.80;;;;;;;;5026012;28;8892;-74
2021/09/24 11:48:42;;;;;;;;;7.40;5.80;;;;;;;;5025918;28;8868;-73
2021/09/24 11:51:14;;;;;;;;;5.00;5.00;;;;;;;;5025162;28;8854;-73
2021/09/24 11:53:48;;;;;;;;;7.20;7.20;;;;;;;;5025837;28;8976;-74
2021/09/24 11:56:19;;;;;;;;;6.60;6.60;;;;;;;;5014337;28;8892;-74
2021/09/24 11:58:46;;;;;;;;;5.00;5.00;;;;;;;;5023428;28;8842;-73
2021/09/24 12:01:13;;;;;;;;;6.60;6.60;;;;;;;;5014137;28;8801;-73
2021/09/24 12:03:40;;;;;;;;;5.00;5.00;;;;;;;;5022008;28;9619;-75
2021/09/24 12:06:10;;;;;;;;;5.00;5.00;;;;;;;;5023816;28;8874;-74
2021/09/24 12:08:40;;;;;;;;;7.20;6.40;;;;;;;;5012693;28;8893;-74
2021/09/24 12:11:10;;;;;;;;;8.00;6.40;;;;;;;;5027474;28;8866;-74
2021/09/24 12:13:44;;;;;;;;;7.60;6.80;;;;;;;;5022079;28;9036;-76
2021/09/24 12:16:13;;;;;;;;;6.60;6.60;;;;;;;;5015815;28;8892;-74
2021/09/24 12:18:52;;;;;;;;;6.00;6.00;;;;;;;;5010351;28;8849;-76
2021/09/24 12:21:22;;;;;;;;;5.20;5.20;;;;;;;;5017073;28;8883;-75
2021/09/24 12:23:50;;;;;;;;;6.40;5.80;;;;;;;;5012083;28;9733;-75
2021/09/24 12:26:20;;;;;;;;;7.60;5.60;;;;;;;;5013756;28;8872;-75
2021/09/24 12:28:59;;;;;;;;;8.00;6.00;;;;;;;;5015763;28;8852;-75
2021/09/24 12:31:43;;;;;;;;;7.80;6.40;;;;;;;;5010528;28;8803;-75
2021/09/24 12:34:13;;;;;;;;;5.60;5.60;;;;;;;;5010519;28;8870;-75
2021/09/24 12:36:57;;;;;;;;;7.20;7.20;;;;;;;;5003516;28;9059;-74
2021/09/24 12:39:27;;;;;;;;;5.00;4.00;;;;;;;;5015767;28;8870;-73
2021/09/24 12:41:58;;;;;;;;;5.20;5.20;;;;;;;;5018807;28;8968;-75
2021/09/24 12:44:25;;;;;;;;;7.00;7.00;;;;;;;;5008540;28;8861;-74
2021/09/24 12:46:56;;;;;;;;;6.20;6.20;;;;;;;;5017557;28;9002;-75
2021/09/24 12:49:24;;;;;;;;;6.80;6.80;;;;;;;;5013851;28;8862;-74
2021/09/24 12:51:53;;;;;;;;;7.20;7.20;;;;;;;;5019165;28;8954;-75
2021/09/24 12:54:21;;;;;;;;;7.60;6.20;;;;;;;;5014368;28;8842;-74
2021/09/24 12:56:50;;;;;;;;;5.60;5.60;;;;;;;;5016571;28;8886;-75
2021/09/24 12:59:21;;;;;;;;;7.00;6.80;;;;;;;;5022194;28;8968;-74
2021/09/24 13:01:49;;;;;;;;;6.80;6.80;;;;;;;;5011938;28;8805;-75
2021/09/24 13:04:19;;;;;;;;;6.00;6.00;;;;;;;;5017135;28;8880;-72
2021/09/24 13:06:49;;;;;;;;;6.20;6.20;;;;;;;;5012206;28;9689;-72
2021/09/24 13:09:18;;;;;;;;;7.20;5.20;;;;;;;;5018084;28;8898;-74
2021/09/24 13:11:46;;;;;;;;;7.80;6.20;;;;;;;;5010234;28;8880;-74
2021/09/24 13:14:14;;;;;;;;;7.60;6.00;;;;;;;;5013288;28;8903;-74
2021/09/24 13:16:43;;;;;;;;;8.40;7.60;;;;;;;;5030085;28;8861;-75
2021/09/24 13:19:10;;;;;;;;;6.00;6.00;;;;;;;;5013529;28;8870;-74
2021/09/24 13:21:37;;;;;;;;;6.80;5.40;;;;;;;;5021799;28;8885;-75
2021/09/24 13:24:05;;;;;;;;;4.60;4.60;;;;;;;;5017267;28;8873;-76
2021/09/24 13:26:32;;;;;;;;;6.20;5.00;;;;;;;;5013035;28;8884;-74
2021/09/24 13:29:00;;;;;;;;;6.00;6.00;;;;;;;;5022487;28;9029;-74
2021/09/24 13:31:27;;;;;;;;;4.60;4.60;;;;;;;;5018153;28;8806;-73
2021/09/24 13:33:56;;;;;;;;;5.00;5.00;;;;;;;;5023501;28;8881;-74
2021/09/24 13:36:23;;;;;;;;;5.20;5.20;;;;;;;;5019184;28;8877;-73
2021/09/24 13:38:50;;;;;;;;;5.60;5.60;;;;;;;;5011069;28;9733;-74
2021/09/24 13:41:18;;;;;;;;;4.80;4.80;;;;;;;;5019092;28;8894;-73
2021/09/24 13:43:45;;;;;;;;;7.40;7.40;;;;;;;;5024256;28;8846;-74
2021/09/24 13:46:12;;;;;;;;;6.80;6.80;;;;;;;;5022464;28;8915;-74
2021/09/24 13:48:40;;;;;;;;;6.00;6.00;;;;;;;;5021659;28;9004;-74
2021/09/24 13:51:08;;;;;;;;;8.00;8.00;;;;;;;;5014866;28;8877;-73
2021/09/24 13:53:36;;;;;;;;;5.80;5.80;;;;;;;;5018591;28;8887;-73
2021/09/24 13:56:04;;;;;;;;;8.40;6.80;;;;;;;;5022133;28;8853;-75
2021/09/24 13:58:31;;;;;;;;;6.40;6.40;;;;;;;;5021903;28;8985;-74
2021/09/24 14:00:59;;;;;;;;;6.60;5.00;;;;;;;;5009696;28;8826;-75
2021/09/24 14:03:26;;;;;;;;;8.80;8.00;;;;;;;;5022275;28;8865;-74
2021/09/24 14:05:53;;;;;;;;;6.40;6.20;;;;;;;;5016936;28;8909;-74
2021/09/24 14:08:22;;;;;;;;;8.40;7.80;;;;;;;;5022028;28;8885;-74
2021/09/24 14:10:50;;;;;;;;;11.40;10.60;;;;;;;;5020204;28;9004;-74
2021/09/24 14:13:17;;;;;;;;;6.00;4.00;;;;;;;;5020350;28;8877;-74
2021/09/24 14:15:45;;;;;;;;;5.80;5.80;;;;;;;;5015353;28;8919;-74
2021/09/24 14:18:12;;;;;;;;;6.60;6.60;;;;;;;;5023497;28;8997;-74
2021/09/24 14:20:40;;;;;;;;;5.40;5.40;;;;;;;;5013997;28;8869;-74
2021/09/24 14:23:07;;;;;;;;;5.60;5.60;;;;;;;;5021966;28;8926;-75
2021/09/24 14:25:36;;;;;;;;;7.40;6.20;;;;;;;;5021645;28;8877;-74
2021/09/24 14:28:04;;;;;;;;;5.20;5.20;;;;;;;;5016768;28;8916;-76
2021/09/24 14:30:31;;;;;;;;;6.60;6.60;;;;;;;;5018836;28;8818;-74
2021/09/24 14:32:58;;;;;;;;;6.40;6.40;;;;;;;;5016794;28;8859;-74
2021/09/24 14:35:26;;;;;;;;;6.00;6.00;;;;;;;;5014917;28;9659;-75
2021/09/24 14:37:53;;;;;;;;;9.00;8.80;;;;;;;;5014691;28;8913;-74
2021/09/24 14:40:22;;;;;;;;;8.80;7.20;;;;;;;;5018817;28;8872;-75
2021/09/24 14:42:50;;;;;;;;;7.80;7.80;;;;;;;;5007808;28;8877;-75
2021/09/24 14:45:18;;;;;;;;;8.20;8.20;;;;;;;;5016409;28;8885;-74
2021/09/24 14:47:45;;;;;;;;;5.20;5.20;;;;;;;;5014832;28;8907;-75
2021/09/24 14:50:14;;;;;;;;;5.80;5.40;;;;;;;;5015082;28;8841;-74
2021/09/24 14:52:42;;;;;;;;;6.20;5.80;;;;;;;;5015631;28;8857;-74
2021/09/24 14:55:10;;;;;;;;;5.20;4.80;;;;;;;;5013666;28;8919;-75
2021/09/24 14:57:37;;;;;;;;;6.00;6.00;;;;;;;;5017082;28;8881;-74
2021/09/24 15:00:09;;;;;;;;;6.20;5.60;;;;;;;;5021185;28;8942;-75
2021/09/24 15:02:36;;;;;;;;;8.80;7.20;;;;;;;;5018960;28;9017;-73